createdAt,value
2023-03-13T00:02:21.254Z,100130.66
2023-03-13T00:04:53.454Z,100129.54
2023-03-13T00:07:34.298Z,100124.32
2023-03-13T00:10:18.266Z,100130.89
2023-03-13T00:12:45.288Z,100129.66
2023-03-13T00:15:17.548Z,100131.21
2023-03-13T00:17:50.581Z,100132.31
2023-03-13T00:20:19.197Z,100134.48
2023-03-13T00:22:52.690Z,100138.11
2023-03-13T00:25:20.767Z,100138.20
2023-03-13T00:27:50.240Z,100139.06
2023-03-13T00:30:22.536Z,100141.86
2023-03-13T00:32:56.067Z,100143.76
2023-03-13T00:35:28.676Z,100145.02
2023-03-13T00:37:55.772Z,100146.99
2023-03-13T00:40:27.488Z,100151.77
2023-03-13T00:42:54.586Z,100150.60
2023-03-13T00:45:21.546Z,100157.52
2023-03-13T00:47:53.916Z,100156.06
2023-03-13T00:50:21.274Z,100158.21
2023-03-13T00:52:48.327Z,100164.84
2023-03-13T00:55:15.584Z,100162.80
2023-03-13T00:57:43.294Z,100166.67
2023-03-13T01:00:15.619Z,100169.68
2023-03-13T01:02:49.979Z,100169.34
2023-03-13T01:05:17.902Z,100179.31
2023-03-13T01:07:44.916Z,100180.29
2023-03-13T01:10:16.931Z,100187.77
2023-03-13T01:12:49.384Z,100184.73
2023-03-13T01:15:19.202Z,100187.33
2023-03-13T01:17:49.298Z,100188.09
2023-03-13T01:20:16.830Z,100193.09
2023-03-13T01:22:43.882Z,100194.92
2023-03-13T01:25:16.686Z,100195.83
2023-03-13T01:27:43.653Z,100196.41
2023-03-13T01:30:11.838Z,100204.89
2023-03-13T01:32:40.189Z,100210.27
2023-03-13T01:35:09.295Z,100209.27
2023-03-13T01:37:38.313Z,100217.42
2023-03-13T01:40:06.163Z,100222.32
2023-03-13T01:42:50.819Z,100227.50
2023-03-13T01:45:49.446Z,100232.16
2023-03-13T01:48:19.143Z,100234.13
2023-03-13T01:50:49.132Z,100233.64
2023-03-13T01:53:30.149Z,100237.66
2023-03-13T01:56:05.182Z,100240.38
2023-03-13T01:58:32.598Z,100246.77
2023-03-13T02:01:00.145Z,100253.08
2023-03-13T02:03:39.290Z,100256.67
2023-03-13T02:06:07.458Z,100261.77
2023-03-13T02:08:42.250Z,100262.02
2023-03-13T02:11:18.762Z,100267.77
2023-03-13T02:13:48.698Z,100272.97
2023-03-13T02:16:15.950Z,100276.02
2023-03-13T02:18:54.094Z,100281.52
2023-03-13T02:21:55.381Z,100290.86
2023-03-13T02:24:34.946Z,100293.52
2023-03-13T02:27:02.534Z,100294.38
2023-03-13T02:29:34.063Z,100299.30
2023-03-13T02:32:01.590Z,100305.81
2023-03-13T02:34:34.021Z,100307.70
2023-03-13T02:37:02.055Z,100309.16
2023-03-13T02:39:29.903Z,100315.45
2023-03-13T02:41:57.870Z,100315.65
2023-03-13T02:44:30.551Z,100318.43
2023-03-13T02:46:58.288Z,100321.64
2023-03-13T02:49:29.721Z,100328.25
2023-03-13T02:52:05.542Z,100326.91
2023-03-13T02:54:34.541Z,100331.39
2023-03-13T02:57:07.307Z,100341.40
2023-03-13T02:59:34.204Z,100347.30
2023-03-13T03:02:01.899Z,100354.84
2023-03-13T03:04:29.632Z,100358.21
2023-03-13T03:06:56.687Z,100361.19
2023-03-13T03:09:23.976Z,100366.51
2023-03-13T03:11:52.940Z,100367.27
2023-03-13T03:14:20.317Z,100367.98
2023-03-13T03:16:48.216Z,100368.59
2023-03-13T03:19:15.233Z,100371.16
2023-03-13T03:21:44.147Z,100375.17
2023-03-13T03:24:11.128Z,100380.52
2023-03-13T03:26:38.309Z,100384.50
2023-03-13T03:29:15.496Z,100386.90
2023-03-13T03:31:43.869Z,100389.90
2023-03-13T03:34:17.678Z,100390.25
2023-03-13T03:36:46.690Z,100393.33
2023-03-13T03:39:13.821Z,100398.48
2023-03-13T03:41:40.873Z,100399.55
2023-03-13T03:44:08.119Z,100408.39
2023-03-13T03:47:12.772Z,100417.90
2023-03-13T03:49:47.405Z,100418.73
2023-03-13T03:52:14.966Z,100423.67
2023-03-13T03:54:44.742Z,100428.58
2023-03-13T03:57:12.656Z,100434.55
2023-03-13T03:59:39.753Z,100444.41
2023-03-13T04:02:09.020Z,100447.96
2023-03-13T04:04:41.547Z,100447.82
2023-03-13T04:07:18.418Z,100458.23
2023-03-13T04:09:50.792Z,100461.19
2023-03-13T04:12:34.668Z,100465.02
2023-03-13T04:15:01.578Z,100468.33
2023-03-13T04:17:29.101Z,100472.02
2023-03-13T04:19:56.292Z,100479.34
2023-03-13T04:22:26.920Z,100480.66
2023-03-13T04:25:02.914Z,100488.45
2023-03-13T04:27:32.199Z,100495.72
2023-03-13T04:29:59.203Z,100505.30
2023-03-13T04:33:05.887Z,100515.27
2023-03-13T04:35:50.072Z,100515.20
2023-03-13T04:38:27.818Z,100525.56
2023-03-13T04:41:28.542Z,100523.72
2023-03-13T04:44:25.060Z,100534.02
2023-03-13T04:47:23.825Z,100537.70
2023-03-13T04:50:11.685Z,100541.55
2023-03-13T04:53:00.893Z,100545.77
2023-03-13T04:55:41.495Z,100549.57
2023-03-13T04:58:27.774Z,100553.02
2023-03-13T05:01:11.662Z,100562.17
2023-03-13T05:03:58.431Z,100562.25
2023-03-13T05:06:51.004Z,100573.46
2023-03-13T05:09:50.995Z,100576.52
2023-03-13T05:12:36.902Z,100583.13
2023-03-13T05:15:33.004Z,100587.26
2023-03-13T05:18:14.377Z,100591.08
2023-03-13T05:21:06.358Z,100593.65
2023-03-13T05:23:36.577Z,100601.71
2023-03-13T05:26:22.256Z,100601.39
2023-03-13T05:29:20.741Z,100607.73
2023-03-13T05:32:20.776Z,100608.60
2023-03-13T05:34:59.566Z,100615.56
2023-03-13T05:37:46.913Z,100623.30
2023-03-13T05:40:32.601Z,100624.46
2023-03-13T05:43:18.718Z,100631.30
2023-03-13T05:46:10.893Z,100634.16
2023-03-13T05:48:54.823Z,100638.27
2023-03-13T05:51:49.752Z,100646.14
2023-03-13T05:54:28.083Z,100646.44
2023-03-13T05:57:23.176Z,100647.71
2023-03-13T06:00:03.228Z,100649.54
2023-03-13T06:03:05.279Z,100655.19
2023-03-13T06:05:39.394Z,100652.56
2023-03-13T06:08:14.038Z,100653.26
2023-03-13T06:10:41.167Z,100652.90
2023-03-13T06:13:19.322Z,100660.37
2023-03-13T06:15:52.764Z,100665.55
2023-03-13T06:18:37.447Z,100666.74
2023-03-13T06:21:04.530Z,100675.44
2023-03-13T06:23:31.861Z,100679.48
2023-03-13T06:25:59.701Z,100682.09
2023-03-13T06:28:31.451Z,100688.52
2023-03-13T06:31:00.899Z,100687.09
2023-03-13T06:33:28.178Z,100691.16
2023-03-13T06:35:57.049Z,100694.15
2023-03-13T06:38:24.713Z,100697.03
2023-03-13T06:40:51.508Z,100698.92
2023-03-13T06:43:22.360Z,100703.73
2023-03-13T06:45:49.284Z,100711.74
2023-03-13T06:48:16.417Z,100714.98
2023-03-13T06:50:43.258Z,100713.66
2023-03-13T06:53:13.819Z,100720.73
2023-03-13T06:55:40.674Z,100730.28
2023-03-13T06:58:07.431Z,100730.70
2023-03-13T07:00:34.586Z,100733.33
2023-03-13T07:03:01.536Z,100733.71
2023-03-13T07:05:28.609Z,100736.86
2023-03-13T07:07:55.744Z,100737.17
2023-03-13T07:10:26.158Z,100742.98
2023-03-13T07:12:54.199Z,100741.27
2023-03-13T07:15:22.868Z,100744.66
2023-03-13T07:17:51.871Z,100746.48
2023-03-13T07:20:19.500Z,100746.88
2023-03-13T07:22:50.382Z,100746.64
2023-03-13T07:25:17.812Z,100749.30
2023-03-13T07:27:44.888Z,100751.44
2023-03-13T07:30:11.813Z,100755.95
2023-03-13T07:32:39.114Z,100758.94
2023-03-13T07:35:06.599Z,100752.95
2023-03-13T07:37:33.722Z,100754.70
2023-03-13T07:40:01.308Z,100752.70
2023-03-13T07:42:28.392Z,100751.65
2023-03-13T07:44:55.580Z,100752.57
2023-03-13T07:47:22.442Z,100751.72
2023-03-13T07:49:49.399Z,100751.05
2023-03-13T07:52:17.500Z,100753.75
2023-03-13T07:54:45.940Z,100756.92
2023-03-13T07:57:12.781Z,100760.71
2023-03-13T07:59:39.658Z,100756.77
2023-03-13T08:02:08.575Z,100755.14
2023-03-13T08:04:35.412Z,100757.27
2023-03-13T08:07:02.224Z,100754.80
2023-03-13T08:09:31.623Z,100757.88
2023-03-13T08:11:58.389Z,100753.73
2023-03-13T08:14:25.252Z,100752.54
2023-03-13T08:16:52.537Z,100759.17
2023-03-13T08:19:19.373Z,100760.88
2023-03-13T08:21:47.233Z,100763.63
2023-03-13T08:24:14.276Z,100763.91
2023-03-13T08:26:41.207Z,100767.80
2023-03-13T08:29:14.561Z,100770.94
2023-03-13T08:31:43.201Z,100774.65
2023-03-13T08:34:13.506Z,100775.32
2023-03-13T08:36:40.840Z,100777.46
2023-03-13T08:39:15.270Z,100787.15
2023-03-13T08:41:42.059Z,100790.93
2023-03-13T08:44:10.250Z,100791.73
2023-03-13T08:46:37.203Z,100790.47
2023-03-13T08:49:04.344Z,100785.20
2023-03-13T08:51:32.470Z,100790.03
2023-03-13T08:53:59.353Z,100794.48
2023-03-13T08:56:29.940Z,100796.27
2023-03-13T08:59:01.207Z,100794.91
2023-03-13T09:01:30.263Z,100796.52
2023-03-13T09:03:58.932Z,100792.95
2023-03-13T09:06:27.434Z,100790.16
2023-03-13T09:08:55.830Z,100789.86
2023-03-13T09:11:22.651Z,100784.16
2023-03-13T09:13:54.791Z,100781.97
2023-03-13T09:16:22.496Z,100783.94
2023-03-13T09:18:50.252Z,100779.20
2023-03-13T09:21:18.864Z,100778.84
2023-03-13T09:23:47.625Z,100778.70
2023-03-13T09:26:14.669Z,100784.48
2023-03-13T09:28:43.463Z,100783.88
2023-03-13T09:31:14.666Z,100778.28
2023-03-13T09:33:46.650Z,100768.23
2023-03-13T09:36:14.051Z,100762.11
2023-03-13T09:38:40.868Z,100767.80
2023-03-13T09:41:16.931Z,100769.25
2023-03-13T09:43:47.693Z,100769.80
2023-03-13T09:46:20.663Z,100770.23
2023-03-13T09:48:51.138Z,100768.02
2023-03-13T09:51:30.472Z,100768.35
2023-03-13T09:53:57.309Z,100770.12
2023-03-13T09:56:24.901Z,100770.38
2023-03-13T09:58:56.882Z,100762.95
2023-03-13T10:01:26.025Z,100765.29
2023-03-13T10:03:57.971Z,100763.30
2023-03-13T10:06:24.901Z,100760.05
2023-03-13T10:08:52.977Z,100758.44
2023-03-13T10:11:26.227Z,100760.82
2023-03-13T10:13:56.214Z,100758.83
2023-03-13T10:16:25.347Z,100751.29
2023-03-13T10:18:53.511Z,100746.00
2023-03-13T10:21:21.150Z,100746.77
2023-03-13T10:24:00.269Z,100745.08
2023-03-13T10:26:28.537Z,100737.13
2023-03-13T10:28:55.960Z,100732.92
2023-03-13T10:31:23.249Z,100732.12
2023-03-13T10:33:51.148Z,100729.17
2023-03-13T10:36:19.308Z,100728.29
2023-03-13T10:38:52.987Z,100731.05
2023-03-13T10:41:46.907Z,100727.50
2023-03-13T10:44:21.236Z,100726.27
2023-03-13T10:46:48.682Z,100726.27
2023-03-13T10:49:19.805Z,100725.91
2023-03-13T10:51:52.366Z,100728.24
2023-03-13T10:54:22.296Z,100727.19
2023-03-13T10:56:49.731Z,100724.71
2023-03-13T10:59:23.873Z,100727.98
2023-03-13T11:01:51.283Z,100719.65
2023-03-13T11:04:38.417Z,100718.67
2023-03-13T11:07:19.330Z,100712.92
2023-03-13T11:10:09.238Z,100714.25
2023-03-13T11:12:39.049Z,100710.96
2023-03-13T11:15:06.521Z,100710.85
2023-03-13T11:17:38.535Z,100703.30
2023-03-13T11:20:20.786Z,100708.30
2023-03-13T11:22:50.406Z,100712.70
2023-03-13T11:25:38.865Z,100708.05
2023-03-13T11:28:14.997Z,100709.41
2023-03-13T11:30:42.329Z,100704.90
2023-03-13T11:33:17.704Z,100698.14
2023-03-13T11:35:49.757Z,100700.36
2023-03-13T11:38:36.210Z,100696.75
2023-03-13T11:41:09.869Z,100699.83
2023-03-13T11:43:40.795Z,100697.71
2023-03-13T11:46:09.246Z,100693.98
2023-03-13T11:48:36.445Z,100693.21
2023-03-13T11:51:25.130Z,100697.48
2023-03-13T11:54:11.151Z,100699.23
2023-03-13T11:56:39.392Z,100697.54
2023-03-13T11:59:06.367Z,100696.40
2023-03-13T12:01:46.912Z,100694.34
2023-03-13T12:04:22.995Z,100694.83
2023-03-13T12:07:07.546Z,100696.45
2023-03-13T12:09:45.341Z,100693.17
2023-03-13T12:12:15.812Z,100695.77
2023-03-13T12:14:58.281Z,100697.22
2023-03-13T12:17:34.130Z,100695.13
2023-03-13T12:20:07.221Z,100694.20
2023-03-13T12:22:46.395Z,100704.08
2023-03-13T12:25:27.878Z,100697.10
2023-03-13T12:28:00.488Z,100699.20
2023-03-13T12:30:36.874Z,100703.91
2023-03-13T12:33:24.240Z,100698.94
2023-03-13T12:36:10.077Z,100706.75
2023-03-13T12:38:38.816Z,100702.17
2023-03-13T12:41:19.299Z,100705.67
2023-03-13T12:44:08.455Z,100703.57
2023-03-13T12:46:38.399Z,100702.91
2023-03-13T12:49:12.382Z,100703.34
2023-03-13T12:52:02.686Z,100704.20
2023-03-13T12:54:51.828Z,100702.06
2023-03-13T12:57:21.365Z,100698.81
2023-03-13T12:59:55.265Z,100697.08
2023-03-13T13:02:23.308Z,100699.30
2023-03-13T13:04:50.427Z,100703.56
2023-03-13T13:07:23.925Z,100704.41
2023-03-13T13:10:04.472Z,100704.02
2023-03-13T13:12:32.169Z,100700.61
2023-03-13T13:15:03.525Z,100705.52
2023-03-13T13:17:39.056Z,100706.05
2023-03-13T13:20:26.028Z,100705.92
2023-03-13T13:23:18.401Z,100709.77
2023-03-13T13:25:45.318Z,100708.70
2023-03-13T13:28:21.454Z,100712.09
2023-03-13T13:30:49.012Z,100714.66
2023-03-13T13:33:27.542Z,100707.88
2023-03-13T13:36:09.947Z,100713.30
2023-03-13T13:38:42.979Z,100708.65
2023-03-13T13:41:11.448Z,100709.89
2023-03-13T13:43:41.732Z,100712.94
2023-03-13T13:46:28.879Z,100708.08
2023-03-13T13:49:06.183Z,100706.20
2023-03-13T13:51:36.677Z,100706.39
2023-03-13T13:54:12.437Z,100703.80
2023-03-13T13:56:43.537Z,100707.79
2023-03-13T13:59:20.173Z,100705.95
2023-03-13T14:01:47.702Z,100704.86
2023-03-13T14:04:27.525Z,100703.17
2023-03-13T14:06:54.563Z,100707.61
2023-03-13T14:09:31.272Z,100710.77
2023-03-13T14:12:01.231Z,100711.77
2023-03-13T14:14:29.227Z,100710.48
2023-03-13T14:16:56.767Z,100708.55
2023-03-13T14:19:23.689Z,100707.11
2023-03-13T14:21:57.702Z,100709.95
2023-03-13T14:24:26.463Z,100710.56
2023-03-13T14:26:53.462Z,100707.77
2023-03-13T14:29:25.536Z,100709.15
2023-03-13T14:31:59.013Z,100709.08
2023-03-13T14:34:32.681Z,100711.40
2023-03-13T14:37:16.786Z,100716.13
2023-03-13T14:39:45.034Z,100717.13
2023-03-13T14:42:13.102Z,100720.67
2023-03-13T14:44:42.500Z,100720.11
2023-03-13T14:47:26.894Z,100724.13
2023-03-13T14:49:58.850Z,100726.26
2023-03-13T14:52:32.624Z,100727.14
2023-03-13T14:55:28.455Z,100727.76
2023-03-13T14:58:03.171Z,100722.48
2023-03-13T15:00:34.741Z,100723.35
2023-03-13T15:03:16.326Z,100727.48
2023-03-13T15:05:46.427Z,100725.29
2023-03-13T15:08:14.405Z,100725.77
2023-03-13T15:10:42.780Z,100731.54
2023-03-13T15:13:24.613Z,100732.77
2023-03-13T15:15:51.786Z,100732.88
2023-03-13T15:18:27.294Z,100735.73
2023-03-13T15:20:55.400Z,100735.35
2023-03-13T15:23:22.098Z,100738.82
2023-03-13T15:25:49.598Z,100740.13
2023-03-13T15:28:17.450Z,100744.93
2023-03-13T15:30:48.076Z,100744.89
2023-03-13T15:33:16.154Z,100748.43
2023-03-13T15:35:43.039Z,100750.47
2023-03-13T15:38:14.352Z,100757.59
2023-03-13T15:40:41.160Z,100765.53
2023-03-13T15:43:08.757Z,100766.16
2023-03-13T15:45:36.450Z,100767.67
2023-03-13T15:48:25.339Z,100769.08
2023-03-13T15:50:52.727Z,100773.91
2023-03-13T15:53:21.009Z,100777.55
2023-03-13T15:55:49.811Z,100779.65
2023-03-13T15:58:16.844Z,100787.80
2023-03-13T16:00:48.521Z,100787.64
2023-03-13T16:03:16.754Z,100789.65
2023-03-13T16:05:43.562Z,100793.66
2023-03-13T16:08:15.126Z,100797.78
2023-03-13T16:10:42.455Z,100801.93
2023-03-13T16:13:15.516Z,100803.32
2023-03-13T16:15:43.786Z,100809.70
2023-03-13T16:18:21.216Z,100812.31
2023-03-13T16:20:52.549Z,100814.67
2023-03-13T16:23:21.332Z,100816.00
2023-03-13T16:25:48.591Z,100816.30
2023-03-13T16:28:22.569Z,100816.08
2023-03-13T16:30:49.462Z,100813.79
2023-03-13T16:33:19.326Z,100811.29
2023-03-13T16:35:47.393Z,100811.66
2023-03-13T16:38:14.837Z,100812.61
2023-03-13T16:40:43.641Z,100812.56
2023-03-13T16:43:16.592Z,100813.72
2023-03-13T16:45:43.893Z,100813.89
2023-03-13T16:48:12.937Z,100815.16
2023-03-13T16:50:44.831Z,100819.67
2023-03-13T16:53:11.794Z,100815.70
2023-03-13T16:55:43.979Z,100817.77
2023-03-13T16:58:11.471Z,100819.77
2023-03-13T17:00:38.613Z,100823.55
2023-03-13T17:03:05.538Z,100816.77
2023-03-13T17:05:32.754Z,100822.89
2023-03-13T17:07:59.582Z,100818.73
2023-03-13T17:10:27.791Z,100818.56
2023-03-13T17:12:54.915Z,100821.05
2023-03-13T17:15:25.008Z,100826.55
2023-03-13T17:17:53.564Z,100832.98
2023-03-13T17:20:24.236Z,100837.46
2023-03-13T17:23:05.732Z,100839.23
2023-03-13T17:25:34.497Z,100843.05
2023-03-13T17:28:01.658Z,100842.89
2023-03-13T17:30:32.306Z,100839.65
2023-03-13T17:33:00.294Z,100838.69
2023-03-13T17:35:29.359Z,100838.80
2023-03-13T17:37:56.148Z,100840.32
2023-03-13T17:40:27.266Z,100844.89
2023-03-13T17:42:55.831Z,100845.27
2023-03-13T17:45:22.626Z,100846.83
2023-03-13T17:47:49.806Z,100845.35
2023-03-13T17:50:18.135Z,100848.80
2023-03-13T17:52:53.162Z,100850.69
2023-03-13T17:55:19.932Z,100851.98
2023-03-13T17:57:47.805Z,100852.49
2023-03-13T18:00:17.950Z,100856.36
2023-03-13T18:02:45.095Z,100860.29
2023-03-13T18:05:12.403Z,100865.97
2023-03-13T18:07:43.704Z,100868.81
2023-03-13T18:10:17.622Z,100873.14
2023-03-13T18:12:45.476Z,100877.55
2023-03-13T18:15:12.717Z,100880.62
2023-03-13T18:17:43.250Z,100880.54
2023-03-13T18:20:14.383Z,100887.45
2023-03-13T18:22:41.845Z,100896.64
2023-03-13T18:25:11.364Z,100900.92
2023-03-13T18:27:38.537Z,100900.93
2023-03-13T18:30:11.866Z,100904.64
2023-03-13T18:32:39.854Z,100905.85
2023-03-13T18:35:07.074Z,100899.05
2023-03-13T18:37:34.774Z,100898.90
2023-03-13T18:40:01.823Z,100897.20
2023-03-13T18:42:28.911Z,100895.00
2023-03-13T18:44:55.705Z,100896.12
2023-03-13T18:47:26.673Z,100903.80
2023-03-13T18:49:55.044Z,100902.75
2023-03-13T18:52:21.839Z,100899.39
2023-03-13T18:54:51.371Z,100903.17
2023-03-13T18:57:18.571Z,100901.52
2023-03-13T18:59:45.266Z,100896.59
2023-03-13T19:02:13.429Z,100895.73
2023-03-13T19:04:41.069Z,100894.36
2023-03-13T19:07:15.193Z,100900.61
2023-03-13T19:09:44.748Z,100903.47
2023-03-13T19:12:14.977Z,100905.81
2023-03-13T19:14:42.085Z,100910.08
2023-03-13T19:17:19.785Z,100905.17
2023-03-13T19:19:47.711Z,100907.35
2023-03-13T19:22:14.535Z,100906.73
2023-03-13T19:24:41.317Z,100906.56
2023-03-13T19:27:10.180Z,100907.05
2023-03-13T19:29:37.090Z,100906.58
2023-03-13T19:32:06.679Z,100902.59
2023-03-13T19:34:33.831Z,100898.06
2023-03-13T19:37:05.784Z,100901.08
2023-03-13T19:39:39.308Z,100897.73
2023-03-13T19:42:07.265Z,100893.05
2023-03-13T19:44:36.242Z,100891.42
2023-03-13T19:47:04.161Z,100889.35
2023-03-13T19:49:31.490Z,100888.34
2023-03-13T19:51:59.653Z,100894.16
2023-03-13T19:54:26.886Z,100897.51
2023-03-13T19:56:55.686Z,100899.09
2023-03-13T19:59:23.503Z,100903.06
2023-03-13T20:01:50.938Z,100907.31
2023-03-13T20:04:17.787Z,100904.27
2023-03-13T20:06:45.144Z,100904.37
2023-03-13T20:09:19.482Z,100907.85
2023-03-13T20:11:46.306Z,100904.64
2023-03-13T20:14:16.382Z,100905.38
2023-03-13T20:16:46.951Z,100907.84
2023-03-13T20:19:14.093Z,100907.92
2023-03-13T20:21:42.442Z,100907.61
2023-03-13T20:24:09.469Z,100905.26
2023-03-13T20:26:36.293Z,100904.09
2023-03-13T20:29:03.074Z,100907.05
2023-03-13T20:31:31.044Z,100910.05
2023-03-13T20:34:00.885Z,100915.27
2023-03-13T20:36:27.916Z,100910.42
2023-03-13T20:38:54.880Z,100912.95
2023-03-13T20:41:25.312Z,100907.15
2023-03-13T20:43:52.528Z,100907.00
2023-03-13T20:46:19.958Z,100906.73
2023-03-13T20:48:47.512Z,100900.43
2023-03-13T20:51:15.797Z,100899.52
2023-03-13T20:53:45.168Z,100895.70
2023-03-13T20:56:12.180Z,100893.94
2023-03-13T20:58:40.544Z,100899.52
2023-03-13T21:01:07.594Z,100893.59
2023-03-13T21:03:36.130Z,100898.35
2023-03-13T21:06:13.978Z,100897.73
2023-03-13T21:08:41.754Z,100899.83
2023-03-13T21:11:11.008Z,100899.52
2023-03-13T21:13:38.866Z,100897.61
2023-03-13T21:16:06.328Z,100895.60
2023-03-13T21:18:34.474Z,100895.19
2023-03-13T21:21:06.133Z,100894.59
2023-03-13T21:23:38.561Z,100895.84
2023-03-13T21:26:06.004Z,100893.20
2023-03-13T21:28:33.375Z,100897.27
2023-03-13T21:31:08.151Z,100892.27
2023-03-13T21:33:35.118Z,100887.98
2023-03-13T21:36:04.094Z,100888.35
2023-03-13T21:38:31.330Z,100885.40
2023-03-13T21:40:58.777Z,100892.41
2023-03-13T21:43:27.737Z,100890.28
2023-03-13T21:45:58.972Z,100892.70
2023-03-13T21:48:27.168Z,100890.43
2023-03-13T21:50:54.156Z,100888.42
2023-03-13T21:53:27.371Z,100886.90
2023-03-13T21:55:54.558Z,100890.42
2023-03-13T21:58:21.740Z,100890.10
2023-03-13T22:00:48.853Z,100887.45
2023-03-13T22:03:16.170Z,100884.63
2023-03-13T22:05:43.432Z,100880.82
2023-03-13T22:08:10.818Z,100879.22
2023-03-13T22:10:38.116Z,100877.45
2023-03-13T22:13:09.034Z,100877.98
2023-03-13T22:15:36.553Z,100880.88
2023-03-13T22:18:05.465Z,100888.50
2023-03-13T22:20:32.353Z,100895.13
2023-03-13T22:23:04.883Z,100900.58
2023-03-13T22:25:33.441Z,100899.30
2023-03-13T22:28:05.486Z,100902.17
2023-03-13T22:30:32.288Z,100905.41
2023-03-13T22:32:59.334Z,100907.13
2023-03-13T22:35:31.584Z,100908.50
2023-03-13T22:38:04.281Z,100909.82
2023-03-13T22:40:37.873Z,100905.73
2023-03-13T22:43:04.645Z,100909.10
2023-03-13T22:45:34.102Z,100911.45
2023-03-13T22:48:05.843Z,100909.73
2023-03-13T22:50:34.037Z,100912.73
2023-03-13T22:53:01.675Z,100910.46
2023-03-13T22:55:33.225Z,100911.19
2023-03-13T22:58:05.514Z,100911.89
2023-03-13T23:00:32.649Z,100909.69
2023-03-13T23:03:01.256Z,100907.52
2023-03-13T23:05:28.332Z,100907.38
2023-03-13T23:07:55.203Z,100905.36
2023-03-13T23:10:22.382Z,100901.31
2023-03-13T23:12:49.328Z,100903.05
2023-03-13T23:15:17.454Z,100905.52
2023-03-13T23:17:45.071Z,100905.28
2023-03-13T23:20:13.394Z,100910.73
2023-03-13T23:22:50.195Z,100911.55
2023-03-13T23:25:18.314Z,100906.20
2023-03-13T23:27:50.589Z,100915.21
2023-03-13T23:30:19.550Z,100905.26
2023-03-13T23:32:48.735Z,100905.77
2023-03-13T23:35:24.183Z,100907.48
2023-03-13T23:37:54.322Z,100906.33
2023-03-13T23:40:22.393Z,100906.77
2023-03-13T23:42:50.046Z,100900.70
2023-03-13T23:45:17.706Z,100899.41
2023-03-13T23:47:47.316Z,100893.84
2023-03-13T23:50:21.532Z,100894.23
2023-03-13T23:53:00.354Z,100887.14
2023-03-13T23:55:27.401Z,100885.05
2023-03-13T23:58:01.134Z,100885.56
